To NAV CANADA Home Page Login to a new session Search on AWWS site Feedback and Comments Disclaimer Vers la page française équivalente Tips FAQ What's new on the site To the Forecasts and Observations / NOTAM section To "File a Flight Plan" website Publications and other links Update of the User's profile FIC Telephone Numbers My Weather Data Folder Route Weather Data Regional Weather Data Local Weather Data To the Forecasts and Observations / NOTAM section
Request Generated 04/19/2014 at 19:57:41 UTC . Weather information available at that time is displayed.

METAR/TAF

ROBERVAL/QC    

METAR CYRJ 191900Z 34013G23KT 40SM FEW030 04/M11 A3031 RMK SC1
SLP272=
METAR CYRJ 191800Z 33015G23KT 40SM FEW030 04/M10 A3030 RMK SC1
SLP269=
METAR CYRJ 191700Z 33016G30KT 40SM FEW030 04/M11 A3028 RMK SC1
SLP264=

TAF CYRJ 191938Z 1920/2002 34015G25KT P6SM FEW030
BECMG 1921/1923 30012KT
RMK NXT FCST WILL BE ISSUED AT 201145Z=
Your time UTC time
Weather data provided by Environment Canada and NAV CANADA